createdAt,value
2019-03-18T00:01:32.622Z,2.80
2019-03-18T00:04:01.362Z,2.20
2019-03-18T00:06:30.264Z,2.17
2019-03-18T00:09:06.004Z,2.02
2019-03-18T00:11:34.872Z,2.83
2019-03-18T00:14:03.783Z,2.27
2019-03-18T00:16:39.511Z,2.50
2019-03-18T00:19:08.390Z,2.65
2019-03-18T00:21:37.251Z,2.20
2019-03-18T00:24:12.915Z,2.37
2019-03-18T00:26:41.889Z,2.17
2019-03-18T00:29:10.700Z,2.50
2019-03-18T00:31:46.182Z,2.37
2019-03-18T00:34:15.021Z,2.65
2019-03-18T00:36:56.495Z,2.80
2019-03-18T00:39:32.562Z,2.60
2019-03-18T00:42:07.620Z,2.90
2019-03-18T00:44:36.622Z,2.90
2019-03-18T00:47:05.481Z,2.35
2019-03-18T00:49:41.240Z,2.58
2019-03-18T00:52:09.958Z,2.62
2019-03-18T00:54:38.744Z,2.70
2019-03-18T00:57:14.490Z,2.30
2019-03-18T00:59:43.224Z,2.55
2019-03-18T01:02:25.244Z,2.15
2019-03-18T01:04:54.025Z,2.70
2019-03-18T01:07:22.727Z,2.40
2019-03-18T01:09:58.344Z,2.22
2019-03-18T01:12:27.085Z,2.70
2019-03-18T01:14:55.785Z,2.75
2019-03-18T01:17:31.637Z,2.95
2019-03-18T01:20:00.448Z,2.62
2019-03-18T01:22:29.172Z,2.70
2019-03-18T01:25:04.272Z,2.60
2019-03-18T01:27:33.994Z,2.75
2019-03-18T01:30:02.783Z,2.95
2019-03-18T01:32:38.087Z,2.70
2019-03-18T01:35:07.589Z,2.50
2019-03-18T01:37:49.674Z,3.00
2019-03-18T01:40:25.055Z,2.80
2019-03-18T01:43:00.573Z,3.35
2019-03-18T01:45:40.270Z,3.20
2019-03-18T01:47:59.710Z,3.30
2019-03-18T01:50:35.415Z,3.40
2019-03-18T01:53:04.137Z,3.30
2019-03-18T01:55:32.831Z,3.55
2019-03-18T01:58:08.498Z,3.27
2019-03-18T02:00:37.275Z,3.67
2019-03-18T02:03:19.470Z,3.58
2019-03-18T02:05:48.176Z,3.15
2019-03-18T02:08:16.924Z,3.40
2019-03-18T02:10:52.891Z,3.40
2019-03-18T02:13:21.594Z,3.85
2019-03-18T02:15:53.491Z,3.77
2019-03-18T02:18:27.723Z,3.47
2019-03-18T02:20:56.491Z,3.47
2019-03-18T02:23:25.188Z,3.25
2019-03-18T02:26:00.614Z,3.93
2019-03-18T02:28:29.312Z,3.60
2019-03-18T02:30:58.227Z,3.80
2019-03-18T02:33:33.479Z,3.60
2019-03-18T02:36:03.359Z,3.35
2019-03-18T02:38:45.288Z,3.50
2019-03-18T02:41:20.968Z,3.90
2019-03-18T02:44:02.982Z,3.65
2019-03-18T02:46:31.724Z,3.87
2019-03-18T02:49:00.420Z,3.25
2019-03-18T02:51:35.853Z,3.70
2019-03-18T02:54:04.569Z,3.42
2019-03-18T02:56:33.276Z,3.45
2019-03-18T02:59:08.937Z,3.90
2019-03-18T03:01:37.663Z,4.17
2019-03-18T03:04:19.740Z,3.90
2019-03-18T03:06:48.450Z,3.50
2019-03-18T03:09:17.159Z,3.80
2019-03-18T03:11:52.787Z,3.70
2019-03-18T03:14:21.573Z,3.95
2019-03-18T03:16:50.297Z,4.78
2019-03-18T03:19:25.988Z,3.70
2019-03-18T03:21:54.738Z,3.87
2019-03-18T03:24:23.438Z,4.20
2019-03-18T03:26:59.046Z,4.10
2019-03-18T03:29:27.800Z,3.90
2019-03-18T03:31:56.530Z,3.80
2019-03-18T03:37:05.048Z,3.75
2019-03-18T03:39:46.177Z,3.97
2019-03-18T03:42:21.897Z,4.20
2019-03-18T03:44:57.411Z,4.47
2019-03-18T03:47:26.150Z,4.03
2019-03-18T03:49:54.863Z,3.90
2019-03-18T03:52:30.355Z,3.93
2019-03-18T03:54:59.070Z,4.22
2019-03-18T03:57:27.952Z,4.35
2019-03-18T04:00:03.905Z,4.10
2019-03-18T04:02:32.613Z,4.05
2019-03-18T04:05:14.964Z,4.53
2019-03-18T04:07:43.823Z,4.03
2019-03-18T04:10:12.788Z,4.53
2019-03-18T04:12:48.278Z,4.28
2019-03-18T04:15:17.168Z,4.10
2019-03-18T04:17:45.932Z,3.60
2019-03-18T04:20:21.358Z,4.10
2019-03-18T04:22:50.087Z,4.10
2019-03-18T04:25:18.904Z,3.80
2019-03-18T04:27:54.538Z,3.65
2019-03-18T04:30:23.319Z,4.10
2019-03-18T04:32:52.026Z,4.30
2019-03-18T04:35:27.746Z,4.40
2019-03-18T04:37:56.480Z,4.47
2019-03-18T04:40:38.762Z,4.22
2019-03-18T04:43:14.628Z,3.95
2019-03-18T04:45:50.256Z,3.90
2019-03-18T04:48:18.963Z,4.50
2019-03-18T04:50:47.701Z,4.00
2019-03-18T04:53:22.894Z,4.17
2019-03-18T04:55:51.626Z,4.30
2019-03-18T04:58:20.323Z,4.28
2019-03-18T05:00:55.593Z,4.15
2019-03-18T05:03:24.312Z,4.20
2019-03-18T05:06:06.024Z,3.90
2019-03-18T05:08:35.956Z,4.37
2019-03-18T05:11:04.678Z,3.87
2019-03-18T05:13:39.990Z,3.67
2019-03-18T05:16:08.877Z,4.25
2019-03-18T05:18:37.903Z,4.33
2019-03-18T05:21:13.694Z,4.35
2019-03-18T05:23:42.444Z,4.08
2019-03-18T05:26:11.301Z,4.10
2019-03-18T05:28:46.814Z,4.47
2019-03-18T05:31:15.567Z,4.30
2019-03-18T05:33:44.328Z,3.60
2019-03-18T05:36:19.287Z,3.87
2019-03-18T05:38:48.011Z,4.03
2019-03-18T05:41:29.159Z,3.80
2019-03-18T05:44:04.767Z,3.87
2019-03-18T05:46:39.936Z,4.40
2019-03-18T05:49:08.636Z,4.10
2019-03-18T05:51:37.355Z,4.10
2019-03-18T05:54:13.093Z,3.83
2019-03-18T05:56:41.848Z,3.83
2019-03-18T05:59:10.618Z,4.33
2019-03-18T06:01:46.319Z,3.87
2019-03-18T06:04:15.128Z,4.40
2019-03-18T06:06:57.209Z,3.97
2019-03-18T06:09:25.916Z,3.75
2019-03-18T06:11:54.625Z,3.70
2019-03-18T06:14:31.159Z,3.87
2019-03-18T06:16:59.918Z,3.70
2019-03-18T06:19:28.580Z,3.80
2019-03-18T06:22:03.868Z,3.90
2019-03-18T06:24:32.601Z,3.60
2019-03-18T06:27:01.323Z,3.55
2019-03-18T06:29:37.033Z,3.80
2019-03-18T06:32:05.780Z,3.77
2019-03-18T06:34:34.526Z,3.70
2019-03-18T06:37:09.632Z,3.50
2019-03-18T06:39:46.788Z,4.05
2019-03-18T06:42:28.962Z,3.52
2019-03-18T06:44:57.661Z,3.67
2019-03-18T06:47:26.375Z,4.03
2019-03-18T06:50:01.663Z,4.05
2019-03-18T06:52:30.622Z,3.87
2019-03-18T06:54:59.350Z,3.83
2019-03-18T06:57:35.171Z,3.30
2019-03-18T07:00:07.036Z,3.98
2019-03-18T07:02:36.287Z,3.62
2019-03-18T07:05:11.654Z,4.00
2019-03-18T07:07:47.345Z,3.70
2019-03-18T07:10:22.948Z,3.83
2019-03-18T07:12:53.582Z,3.72
2019-03-18T07:15:22.472Z,3.87
2019-03-18T07:17:58.027Z,3.70
2019-03-18T07:20:26.761Z,4.10
2019-03-18T07:22:55.510Z,4.30
2019-03-18T07:25:30.882Z,3.98
2019-03-18T07:27:59.572Z,4.40
2019-03-18T07:30:28.283Z,4.00
2019-03-18T07:33:03.810Z,4.03
2019-03-18T07:35:32.548Z,3.33
2019-03-18T07:38:01.264Z,3.70
2019-03-18T07:40:36.624Z,3.40
2019-03-18T07:43:11.639Z,3.72
2019-03-18T07:45:47.456Z,3.58
2019-03-18T07:48:16.459Z,3.90
2019-03-18T07:50:45.158Z,3.70
2019-03-18T07:53:20.479Z,3.80
2019-03-18T07:55:49.273Z,3.60
2019-03-18T07:58:18.081Z,3.52
2019-03-18T08:00:53.112Z,3.47
2019-03-18T08:03:22.373Z,3.40
2019-03-18T08:05:51.095Z,3.40
2019-03-18T08:08:26.620Z,3.12
2019-03-18T08:11:02.218Z,3.13
2019-03-18T08:13:37.715Z,3.25
2019-03-18T08:16:06.445Z,3.10
2019-03-18T08:18:43.051Z,3.33
2019-03-18T08:21:12.109Z,3.30
2019-03-18T08:23:40.864Z,2.95
2019-03-18T08:26:10.960Z,3.00
2019-03-18T08:28:45.880Z,3.12
2019-03-18T08:31:14.673Z,2.60
2019-03-18T08:33:43.612Z,2.80
2019-03-18T08:36:20.065Z,2.77
2019-03-18T08:38:48.873Z,2.80
2019-03-18T08:41:31.169Z,3.22
2019-03-18T08:44:06.829Z,3.00
2019-03-18T08:46:42.428Z,2.72
2019-03-18T08:49:11.428Z,2.83
2019-03-18T08:51:40.178Z,2.80
2019-03-18T08:54:16.194Z,2.50
2019-03-18T08:56:45.514Z,3.10
2019-03-18T08:59:14.338Z,2.85
2019-03-18T09:01:49.925Z,2.65
2019-03-18T09:04:18.667Z,2.50
2019-03-18T09:06:47.734Z,2.50
2019-03-18T09:09:22.706Z,2.45
2019-03-18T09:11:58.419Z,2.70
2019-03-18T09:14:34.135Z,2.30
2019-03-18T09:17:02.924Z,2.90
2019-03-18T09:19:31.734Z,2.60
2019-03-18T09:22:06.666Z,2.35
2019-03-18T09:24:35.687Z,2.10
2019-03-18T09:27:04.701Z,2.35
2019-03-18T09:29:40.052Z,2.23
2019-03-18T09:32:09.071Z,2.70
2019-03-18T09:34:37.796Z,2.30
2019-03-18T09:37:13.683Z,2.10
2019-03-18T09:39:42.560Z,2.20
2019-03-18T09:42:24.123Z,2.37
2019-03-18T09:44:59.498Z,2.20
2019-03-18T09:47:36.070Z,2.15
2019-03-18T09:50:06.668Z,2.30
2019-03-18T09:52:36.315Z,2.02
2019-03-18T09:55:13.607Z,1.47
2019-03-18T09:57:42.416Z,1.90
2019-03-18T10:00:12.367Z,2.08
2019-03-18T10:02:48.186Z,1.63
2019-03-18T10:05:17.050Z,2.08
2019-03-18T10:07:45.762Z,1.65
2019-03-18T10:10:20.812Z,1.95
2019-03-18T10:12:56.472Z,2.10
2019-03-18T10:15:31.363Z,1.57
2019-03-18T10:18:00.200Z,1.52
2019-03-18T10:20:28.968Z,1.70
2019-03-18T10:23:04.632Z,1.98
2019-03-18T10:25:33.366Z,1.60
2019-03-18T10:28:02.188Z,1.75
2019-03-18T10:30:37.547Z,1.65
2019-03-18T10:33:06.322Z,1.40
2019-03-18T10:35:36.368Z,1.45
2019-03-18T10:38:11.264Z,1.60
2019-03-18T10:40:40.017Z,1.65
2019-03-18T10:43:21.585Z,1.65
2019-03-18T10:45:57.218Z,1.52
2019-03-18T10:48:32.763Z,1.45
2019-03-18T10:51:01.508Z,1.52
2019-03-18T10:53:30.353Z,1.53
2019-03-18T10:56:08.035Z,1.60
2019-03-18T10:58:37.100Z,1.77
2019-03-18T11:01:05.808Z,1.40
2019-03-18T11:03:40.815Z,1.50
2019-03-18T11:06:09.709Z,1.70
2019-03-18T11:08:38.444Z,1.62
2019-03-18T11:11:14.239Z,1.42
2019-03-18T11:13:49.796Z,1.70
2019-03-18T11:16:24.784Z,1.47
2019-03-18T11:18:53.547Z,1.62
2019-03-18T11:21:22.251Z,1.90
2019-03-18T11:23:57.446Z,1.30
2019-03-18T11:26:26.173Z,1.65
2019-03-18T11:28:54.955Z,1.65
2019-03-18T11:31:30.115Z,1.47
2019-03-18T11:33:58.871Z,1.83
2019-03-18T11:36:27.941Z,1.70
2019-03-18T11:39:03.674Z,1.75
2019-03-18T11:41:33.384Z,1.40
2019-03-18T11:44:15.439Z,1.60
2019-03-18T11:46:50.650Z,1.40
2019-03-18T11:49:38.571Z,1.40
2019-03-18T11:51:56.851Z,1.65
2019-03-18T11:54:25.734Z,1.30
2019-03-18T11:57:01.126Z,1.25
2019-03-18T11:59:31.157Z,1.60
2019-03-18T12:01:59.895Z,1.17
2019-03-18T12:04:35.287Z,1.35
2019-03-18T12:07:06.275Z,1.40
2019-03-18T12:09:35.016Z,1.00
2019-03-18T12:12:13.208Z,1.10
2019-03-18T12:14:47.468Z,1.20
2019-03-18T12:17:22.813Z,1.65
2019-03-18T12:19:51.535Z,1.10
2019-03-18T12:22:20.292Z,1.30
2019-03-18T12:24:55.872Z,1.07
2019-03-18T12:27:24.667Z,1.00
2019-03-18T12:29:53.503Z,1.32
2019-03-18T12:32:28.922Z,1.20
2019-03-18T12:34:57.688Z,1.15
2019-03-18T12:37:26.478Z,1.10
2019-03-18T12:40:02.100Z,1.00
2019-03-18T12:42:30.804Z,1.10
2019-03-18T12:45:12.847Z,1.27
2019-03-18T12:47:49.432Z,1.02
2019-03-18T12:50:42.889Z,1.10
2019-03-18T12:52:56.834Z,1.10
2019-03-18T12:55:25.549Z,1.20
2019-03-18T12:58:00.952Z,1.27
2019-03-18T13:00:29.790Z,1.00
2019-03-18T13:02:58.616Z,1.00
2019-03-18T13:05:34.233Z,1.05
2019-03-18T13:08:03.059Z,1.10
2019-03-18T13:10:31.784Z,1.10
2019-03-18T13:13:07.145Z,1.22
2019-03-18T13:15:42.640Z,1.17
2019-03-18T13:18:17.897Z,0.90
2019-03-18T13:20:46.628Z,1.27
2019-03-18T13:23:15.350Z,0.80
2019-03-18T13:25:57.534Z,1.15
2019-03-18T13:28:26.409Z,0.95
2019-03-18T13:30:55.185Z,0.93
2019-03-18T13:33:32.010Z,1.10
2019-03-18T13:36:00.820Z,1.00
2019-03-18T13:38:29.547Z,1.20
2019-03-18T13:41:04.884Z,0.90
2019-03-18T13:43:53.480Z,1.17
2019-03-18T13:46:28.911Z,1.10
2019-03-18T13:48:57.642Z,1.10
2019-03-18T13:51:26.807Z,1.10
2019-03-18T13:54:01.651Z,1.15
2019-03-18T13:56:30.380Z,1.20
2019-03-18T13:58:59.078Z,1.10
2019-03-18T14:01:34.257Z,1.07
2019-03-18T14:04:02.991Z,1.02
2019-03-18T14:06:31.728Z,0.90
2019-03-18T14:09:06.628Z,1.00
2019-03-18T14:11:35.492Z,1.22
2019-03-18T14:14:04.377Z,1.12
2019-03-18T14:16:46.519Z,0.98
2019-03-18T14:19:15.229Z,1.10
2019-03-18T14:21:43.955Z,1.20
2019-03-18T14:24:19.784Z,1.10
2019-03-18T14:26:48.585Z,1.12
2019-03-18T14:29:17.394Z,1.60
2019-03-18T14:31:52.551Z,1.22
2019-03-18T14:34:21.308Z,1.20
2019-03-18T14:36:51.008Z,1.32
2019-03-18T14:39:25.954Z,1.52
2019-03-18T14:41:54.689Z,1.50
2019-03-18T14:44:36.367Z,1.30
2019-03-18T14:47:11.622Z,1.10
2019-03-18T14:49:46.736Z,1.40
2019-03-18T14:52:15.513Z,1.40
2019-03-18T14:54:44.204Z,1.37
2019-03-18T14:57:19.734Z,1.35
2019-03-18T14:59:48.608Z,1.52
2019-03-18T15:02:17.347Z,1.40
2019-03-18T15:04:53.060Z,1.60
2019-03-18T15:07:22.055Z,1.50
2019-03-18T15:09:50.788Z,1.42
2019-03-18T15:12:26.362Z,1.50
2019-03-18T15:14:55.147Z,1.40
2019-03-18T15:17:37.864Z,1.60
2019-03-18T15:20:07.048Z,1.50
2019-03-18T15:22:35.744Z,1.35
2019-03-18T15:25:12.876Z,1.50
2019-03-18T15:27:42.854Z,1.60
2019-03-18T15:30:13.342Z,1.20
2019-03-18T15:32:49.328Z,1.70
2019-03-18T15:35:18.194Z,1.55
2019-03-18T15:37:47.059Z,1.42
2019-03-18T15:40:22.946Z,1.80
2019-03-18T15:42:51.821Z,1.57
2019-03-18T15:45:34.957Z,1.40
2019-03-18T15:48:10.365Z,1.70
2019-03-18T15:50:46.744Z,1.50
2019-03-18T15:53:15.501Z,1.82
2019-03-18T15:55:44.244Z,1.57
2019-03-18T15:58:19.309Z,1.77
2019-03-18T16:00:48.032Z,1.40
2019-03-18T16:03:16.757Z,1.50
2019-03-18T16:05:51.933Z,1.60
2019-03-18T16:08:21.648Z,1.50
2019-03-18T16:10:50.385Z,1.30
2019-03-18T16:13:26.047Z,1.42
2019-03-18T16:15:54.772Z,1.50
2019-03-18T16:18:35.988Z,1.70
2019-03-18T16:21:04.814Z,1.40
2019-03-18T16:23:33.535Z,1.32
2019-03-18T16:26:08.699Z,1.90
2019-03-18T16:28:37.444Z,1.42
2019-03-18T16:31:06.234Z,1.80
2019-03-18T16:33:42.098Z,1.70
2019-03-18T16:36:10.802Z,1.35
2019-03-18T16:38:39.521Z,1.77
2019-03-18T16:41:14.839Z,1.95
2019-03-18T16:43:43.583Z,1.90
2019-03-18T16:46:27.737Z,1.50
2019-03-18T16:49:03.507Z,1.65
2019-03-18T16:51:39.196Z,1.80
2019-03-18T16:54:07.933Z,1.80
2019-03-18T16:56:36.854Z,1.90
2019-03-18T16:59:11.995Z,1.70
2019-03-18T17:01:40.832Z,1.87
2019-03-18T17:04:09.683Z,1.90
2019-03-18T17:06:44.702Z,1.70
2019-03-18T17:09:13.508Z,1.70
2019-03-18T17:11:42.248Z,1.87
2019-03-18T17:14:17.101Z,1.95
2019-03-18T17:16:45.833Z,2.08
2019-03-18T17:19:29.836Z,1.87
2019-03-18T17:21:58.613Z,2.10
2019-03-18T17:24:27.528Z,1.70
2019-03-18T17:27:04.786Z,2.02
2019-03-18T17:29:33.558Z,2.00
2019-03-18T17:32:02.263Z,1.95
2019-03-18T17:34:37.797Z,1.98
2019-03-18T17:37:06.519Z,2.07
2019-03-18T17:39:35.280Z,2.10
2019-03-18T17:42:10.902Z,1.90
2019-03-18T17:44:39.601Z,2.02
2019-03-18T17:47:21.326Z,2.20
2019-03-18T17:49:59.077Z,2.10
2019-03-18T17:52:34.917Z,1.90
2019-03-18T17:55:03.725Z,2.25
2019-03-18T17:57:32.456Z,1.70
2019-03-18T18:00:07.990Z,1.87
2019-03-18T18:02:36.738Z,1.60
2019-03-18T18:05:05.764Z,1.80
2019-03-18T18:07:40.587Z,1.82
2019-03-18T18:10:23.495Z,1.80
2019-03-18T18:13:05.497Z,2.10
2019-03-18T18:15:34.229Z,1.67
2019-03-18T18:18:02.931Z,2.00
2019-03-18T18:20:44.100Z,1.70
2019-03-18T18:23:14.613Z,2.07
2019-03-18T18:25:43.363Z,2.08
2019-03-18T18:28:19.175Z,1.87
2019-03-18T18:30:48.014Z,2.45
2019-03-18T18:33:16.850Z,2.10
2019-03-18T18:35:52.871Z,2.50
2019-03-18T18:38:21.682Z,2.17
2019-03-18T18:40:50.451Z,2.10
2019-03-18T18:43:25.529Z,2.47
2019-03-18T18:46:00.607Z,2.35
2019-03-18T18:48:42.607Z,2.10
2019-03-18T18:51:11.518Z,2.30
2019-03-18T18:53:40.315Z,2.10
2019-03-18T18:56:16.192Z,2.10
2019-03-18T18:58:44.942Z,2.58
2019-03-18T19:01:14.906Z,2.47
2019-03-18T19:03:51.034Z,2.40
2019-03-18T19:06:20.144Z,2.27
2019-03-18T19:08:48.919Z,2.33
2019-03-18T19:11:24.539Z,2.33
2019-03-18T19:13:53.233Z,2.20
2019-03-18T19:16:21.938Z,2.52
2019-03-18T19:18:57.662Z,2.40
2019-03-18T19:21:32.643Z,2.60
2019-03-18T19:24:07.741Z,2.98
2019-03-18T19:26:36.591Z,2.47
2019-03-18T19:29:05.409Z,2.35
2019-03-18T19:31:41.220Z,2.40
2019-03-18T19:34:10.014Z,2.60
2019-03-18T19:36:39.101Z,2.50
2019-03-18T19:39:14.407Z,2.12
2019-03-18T19:41:43.433Z,2.45
2019-03-18T19:44:13.416Z,2.37
2019-03-18T19:46:48.825Z,2.60
2019-03-18T19:56:45.989Z,2.50
2019-03-18T19:59:22.778Z,2.70
2019-03-18T20:02:19.734Z,2.50
2019-03-18T20:04:55.172Z,2.60
2019-03-18T20:07:24.228Z,2.85
2019-03-18T20:09:53.193Z,2.62
2019-03-18T20:12:29.969Z,2.62
2019-03-18T20:14:59.170Z,2.40
2019-03-18T20:17:28.114Z,2.37
2019-03-18T20:20:04.048Z,2.85
2019-03-18T20:22:39.899Z,2.80
2019-03-18T20:25:16.542Z,2.50
2019-03-18T20:27:45.859Z,2.45
2019-03-18T20:30:15.385Z,2.30
2019-03-18T20:32:50.735Z,2.60
2019-03-18T20:35:19.764Z,2.42
2019-03-18T20:37:51.466Z,2.55
2019-03-18T20:40:26.111Z,2.20
2019-03-18T20:42:55.516Z,2.20
2019-03-18T20:45:24.752Z,2.62
2019-03-18T20:47:59.758Z,2.40
2019-03-18T20:50:35.059Z,2.55
2019-03-18T20:53:12.025Z,2.60
2019-03-18T20:55:40.972Z,2.65
2019-03-18T20:58:10.639Z,2.60
2019-03-18T21:00:46.210Z,2.35
2019-03-18T21:03:15.135Z,2.70
2019-03-18T21:05:43.978Z,2.47
2019-03-18T21:08:19.142Z,2.80
2019-03-18T21:10:47.905Z,2.35
2019-03-18T21:13:17.205Z,2.55
2019-03-18T21:15:52.834Z,2.58
2019-03-18T21:18:21.774Z,2.62
2019-03-18T21:20:50.955Z,2.62
2019-03-18T21:23:33.157Z,2.75
2019-03-18T21:26:01.893Z,2.60
2019-03-18T21:28:40.810Z,2.72
2019-03-18T21:31:08.298Z,2.87
2019-03-18T21:33:37.194Z,2.67
2019-03-18T21:36:05.978Z,2.80
2019-03-18T21:38:41.762Z,2.67
2019-03-18T21:41:10.621Z,2.62
2019-03-18T21:43:40.702Z,2.80
2019-03-18T21:46:15.830Z,2.33
2019-03-18T21:48:51.041Z,2.47
2019-03-18T21:51:32.944Z,2.87
2019-03-18T21:54:01.783Z,2.90
2019-03-18T21:56:30.771Z,3.00
2019-03-18T21:59:05.954Z,2.95
2019-03-18T22:01:34.756Z,3.08
2019-03-18T22:04:03.809Z,3.10
2019-03-18T22:06:39.175Z,3.10
2019-03-18T22:09:08.128Z,3.40
2019-03-18T22:11:36.968Z,2.77
2019-03-18T22:14:13.889Z,3.00
2019-03-18T22:16:42.709Z,3.20
2019-03-18T22:19:11.553Z,3.50
2019-03-18T22:21:47.721Z,3.65
2019-03-18T22:24:23.082Z,3.08
2019-03-18T22:26:58.310Z,3.10
2019-03-18T22:29:27.311Z,2.75
2019-03-18T22:31:56.039Z,3.65
2019-03-18T22:34:31.846Z,3.10
2019-03-18T22:37:00.590Z,2.95
2019-03-18T22:39:29.346Z,3.30
2019-03-18T22:42:04.563Z,3.57
2019-03-18T22:44:33.277Z,3.33
2019-03-18T22:47:02.185Z,2.90
2019-03-18T22:49:37.399Z,3.35
2019-03-18T22:52:12.530Z,3.58
2019-03-18T22:54:55.618Z,2.95
2019-03-18T22:57:18.049Z,2.83
2019-03-18T22:59:46.829Z,3.30
2019-03-18T23:02:22.612Z,3.70
2019-03-18T23:04:51.371Z,3.55
2019-03-18T23:07:20.134Z,3.25
2019-03-18T23:09:55.934Z,2.98
2019-03-18T23:12:24.657Z,2.90
2019-03-18T23:14:53.453Z,3.40
2019-03-18T23:17:28.585Z,3.55
2019-03-18T23:19:57.319Z,3.10
2019-03-18T23:22:26.024Z,3.20
2019-03-18T23:25:07.187Z,3.08
2019-03-18T23:27:38.029Z,3.65
2019-03-18T23:30:13.577Z,3.20
2019-03-18T23:32:44.845Z,3.20
2019-03-18T23:35:13.729Z,3.50
2019-03-18T23:37:49.294Z,3.90
2019-03-18T23:40:18.126Z,3.33
2019-03-18T23:42:46.925Z,3.37
2019-03-18T23:45:22.277Z,3.40
2019-03-18T23:47:52.713Z,2.87
2019-03-18T23:50:34.306Z,3.52
2019-03-18T23:53:09.790Z,3.65
2019-03-18T23:55:45.091Z,3.00
2019-03-18T23:58:13.841Z,3.15
